createdAt,value
2018-05-03T00:02:10.869Z,88.20
2018-05-03T00:04:40.098Z,88.60
2018-05-03T00:07:14.219Z,89.70
2018-05-03T00:09:43.203Z,89.50
2018-05-03T00:12:19.278Z,90.10
2018-05-03T00:14:48.382Z,90.70
2018-05-03T00:17:17.573Z,91.00
2018-05-03T00:19:47.530Z,91.60
2018-05-03T00:22:19.690Z,92.20
2018-05-03T00:24:49.095Z,93.40
2018-05-03T00:27:21.268Z,94.10
2018-05-03T00:29:50.150Z,94.70
2018-05-03T00:32:26.046Z,95.40
2018-05-03T00:34:55.162Z,95.20
2018-05-03T00:37:25.616Z,95.10
2018-05-03T00:39:54.563Z,95.80
2018-05-03T00:42:27.597Z,95.70
2018-05-03T00:44:56.513Z,95.90
2018-05-03T00:47:29.478Z,96.30
2018-05-03T00:49:58.903Z,96.50
2018-05-03T00:52:31.581Z,96.70
2018-05-03T00:55:00.517Z,97.00
2018-05-03T00:57:34.356Z,96.80
2018-05-03T01:00:03.525Z,96.70
2018-05-03T01:02:40.166Z,97.10
2018-05-03T01:05:10.115Z,96.80
2018-05-03T01:07:38.896Z,96.80
2018-05-03T01:10:07.795Z,96.70
2018-05-03T01:12:40.590Z,96.80
2018-05-03T01:15:09.793Z,97.00
2018-05-03T01:17:46.385Z,96.70
2018-05-03T01:20:15.665Z,97.00
2018-05-03T01:22:45.445Z,97.50
2018-05-03T01:25:14.344Z,97.60
2018-05-03T01:27:50.948Z,97.00
2018-05-03T01:30:19.688Z,97.20
2018-05-03T01:32:51.615Z,97.40
2018-05-03T01:36:31.684Z,97.40
2018-05-03T01:39:01.294Z,97.40
2018-05-03T01:41:30.340Z,97.40
2018-05-03T01:43:59.489Z,97.00
2018-05-03T01:46:28.490Z,97.10
2018-05-03T01:48:58.386Z,97.00
2018-05-03T01:51:27.913Z,96.60
2018-05-03T01:54:05.644Z,96.40
2018-05-03T01:56:34.594Z,96.40
2018-05-03T01:59:03.396Z,96.30
2018-05-03T02:01:32.473Z,96.40
2018-05-03T02:04:06.036Z,96.20
2018-05-03T02:06:34.893Z,96.50
2018-05-03T02:09:12.412Z,96.60
2018-05-03T02:11:41.585Z,96.50
2018-05-03T02:14:14.969Z,96.40
2018-05-03T02:16:43.865Z,96.40
2018-05-03T02:19:16.633Z,96.50
2018-05-03T02:21:46.265Z,96.60
2018-05-03T02:24:18.668Z,96.60
2018-05-03T02:26:47.722Z,96.50
2018-05-03T02:29:20.204Z,96.30
2018-05-03T02:31:48.947Z,96.70
2018-05-03T02:34:22.442Z,96.70
2018-05-03T02:36:51.477Z,96.50
2018-05-03T02:39:24.364Z,96.20
2018-05-03T02:41:53.384Z,96.20
2018-05-03T02:44:26.011Z,95.70
2018-05-03T02:46:55.264Z,95.60
2018-05-03T02:49:27.955Z,95.50
2018-05-03T02:51:56.776Z,95.70
2018-05-03T02:54:33.316Z,95.50
2018-05-03T02:57:11.653Z,95.40
2018-05-03T03:00:59.390Z,95.40
2018-05-03T03:07:27.600Z,95.50
2018-05-03T03:10:02.311Z,95.60
2018-05-03T03:14:45.127Z,95.80
2018-05-03T03:17:28.967Z,95.80
2018-05-03T03:20:06.496Z,95.60
2018-05-03T03:27:07.131Z,95.40
2018-05-03T03:33:58.590Z,95.90
2018-05-03T03:36:38.027Z,95.30
2018-05-03T03:39:19.000Z,95.60
2018-05-03T03:41:53.158Z,95.50
2018-05-03T03:44:33.429Z,95.40
2018-05-03T03:47:02.542Z,95.40
2018-05-03T03:49:31.296Z,95.50
2018-05-03T03:52:00.374Z,95.50
2018-05-03T03:54:29.136Z,95.40
2018-05-03T03:57:05.830Z,95.20
2018-05-03T03:59:35.038Z,95.30
2018-05-03T04:02:06.524Z,95.40
2018-05-03T04:04:35.275Z,95.50
2018-05-03T04:07:08.336Z,95.40
2018-05-03T04:09:37.248Z,95.60
2018-05-03T04:12:11.324Z,95.50
2018-05-03T04:14:40.334Z,95.70
2018-05-03T04:17:16.178Z,95.70
2018-05-03T04:20:13.820Z,95.60
2018-05-03T04:22:53.666Z,95.80
2018-05-03T04:25:34.672Z,95.90
2018-05-03T04:28:03.373Z,95.80
2018-05-03T04:30:32.112Z,95.90
2018-05-03T04:33:02.165Z,95.70
2018-05-03T04:35:31.032Z,95.90
2018-05-03T04:37:59.836Z,95.80
2018-05-03T04:40:28.905Z,95.80
2018-05-03T04:42:57.698Z,95.70
2018-05-03T04:45:26.444Z,96.00
2018-05-03T04:47:56.306Z,95.80
2018-05-03T04:50:29.066Z,95.80
2018-05-03T04:52:57.905Z,95.70
2018-05-03T04:55:30.607Z,95.70
2018-05-03T04:57:59.501Z,95.90
2018-05-03T05:00:36.168Z,95.80
2018-05-03T05:03:05.957Z,96.00
2018-05-03T05:05:35.896Z,95.90
2018-05-03T05:08:04.763Z,95.90
2018-05-03T05:10:37.001Z,95.90
2018-05-03T05:13:05.875Z,95.80
2018-05-03T05:15:42.384Z,95.70
2018-05-03T05:18:12.230Z,95.50
2018-05-03T05:20:41.822Z,95.50
2018-05-03T05:23:11.417Z,96.00
2018-05-03T05:25:47.671Z,95.60
2018-05-03T05:28:16.459Z,95.40
2018-05-03T05:30:46.828Z,95.10
2018-05-03T05:33:15.865Z,94.80
2018-05-03T05:35:52.272Z,94.60
2018-05-03T05:38:21.982Z,94.30
2018-05-03T05:40:51.902Z,94.00
2018-05-03T05:43:21.920Z,93.80
2018-05-03T05:45:54.952Z,93.80
2018-05-03T05:48:23.932Z,93.70
2018-05-03T05:51:00.775Z,93.40
2018-05-03T05:53:29.891Z,93.40
2018-05-03T05:56:00.776Z,93.40
2018-05-03T05:58:29.580Z,93.30
2018-05-03T06:01:02.435Z,93.40
2018-05-03T06:03:31.268Z,93.40
2018-05-03T06:06:07.516Z,93.20
2018-05-03T06:08:37.344Z,93.00
2018-05-03T06:11:07.258Z,93.00
2018-05-03T06:13:36.076Z,93.00
2018-05-03T06:16:12.564Z,93.30
2018-05-03T06:18:41.407Z,93.30
2018-05-03T06:21:14.260Z,93.10
2018-05-03T06:23:44.925Z,92.80
2018-05-03T06:26:15.239Z,92.80
2018-05-03T06:28:44.243Z,92.90
2018-05-03T06:31:21.297Z,93.00
2018-05-03T06:33:50.116Z,93.10
2018-05-03T06:36:20.490Z,93.10
2018-05-03T06:38:49.666Z,92.30
2018-05-03T06:41:21.978Z,92.40
2018-05-03T06:43:51.073Z,92.60
2018-05-03T06:46:25.161Z,92.10
2018-05-03T06:48:55.378Z,91.80
2018-05-03T06:51:26.509Z,91.80
2018-05-03T06:53:55.635Z,91.80
2018-05-03T06:56:32.630Z,91.60
2018-05-03T06:59:01.414Z,91.60
2018-05-03T07:01:31.373Z,89.30
2018-05-03T07:04:00.247Z,89.20
2018-05-03T07:06:33.434Z,88.90
2018-05-03T07:09:02.323Z,88.80
2018-05-03T07:11:35.521Z,89.50
2018-05-03T07:14:04.338Z,87.30
2018-05-03T07:16:37.525Z,88.50
2018-05-03T07:19:06.713Z,88.50
2018-05-03T07:21:43.419Z,86.60
2018-05-03T07:24:12.350Z,86.10
2018-05-03T07:26:42.850Z,86.80
2018-05-03T07:29:13.036Z,85.10
2018-05-03T07:31:45.199Z,85.10
2018-05-03T07:34:14.008Z,85.00
2018-05-03T07:36:49.963Z,85.90
2018-05-03T07:39:20.008Z,85.00
2018-05-03T07:41:50.941Z,84.90
2018-05-03T07:44:19.812Z,84.00
2018-05-03T07:46:53.116Z,84.20
2018-05-03T07:49:22.072Z,84.20
2018-05-03T07:51:59.011Z,83.80
2018-05-03T07:54:28.422Z,84.10
2018-05-03T07:56:58.148Z,81.80
2018-05-03T07:59:27.423Z,81.30
2018-05-03T08:02:03.611Z,82.10
2018-05-03T08:04:33.223Z,81.90
2018-05-03T08:07:04.017Z,81.90
2018-05-03T08:09:33.193Z,81.50
2018-05-03T08:12:06.547Z,80.50
2018-05-03T08:14:35.425Z,80.50
2018-05-03T08:17:11.943Z,80.80
2018-05-03T08:19:40.921Z,82.00
2018-05-03T08:22:13.082Z,80.30
2018-05-03T08:24:42.799Z,82.00
2018-05-03T08:27:14.850Z,82.30
2018-05-03T08:29:43.742Z,82.30
2018-05-03T08:32:17.404Z,81.20
2018-05-03T08:34:46.522Z,81.10
2018-05-03T08:37:19.271Z,79.10
2018-05-03T08:39:49.416Z,78.60
2018-05-03T08:42:21.498Z,77.20
2018-05-03T08:44:50.370Z,77.40
2018-05-03T08:47:24.225Z,79.30
2018-05-03T08:49:53.158Z,76.10
2018-05-03T08:52:25.809Z,76.80
2018-05-03T08:54:54.911Z,75.70
2018-05-03T08:57:27.455Z,75.10
2018-05-03T08:59:57.053Z,71.80
2018-05-03T09:02:30.219Z,75.20
2018-05-03T09:04:59.016Z,75.10
2018-05-03T09:07:31.706Z,74.30
2018-05-03T09:10:01.355Z,70.70
2018-05-03T09:12:33.630Z,70.70
2018-05-03T09:15:02.501Z,70.00
2018-05-03T09:17:37.554Z,68.00
2018-05-03T09:20:06.335Z,68.00
2018-05-03T09:22:38.692Z,70.70
2018-05-03T09:25:07.644Z,66.20
2018-05-03T09:27:44.393Z,65.60
2018-05-03T09:30:15.218Z,65.50
2018-05-03T09:32:44.179Z,65.60
2018-05-03T09:35:13.201Z,63.90
2018-05-03T09:37:45.978Z,65.90
2018-05-03T09:40:14.808Z,65.40
2018-05-03T09:42:48.513Z,64.20
2018-05-03T09:45:17.394Z,64.10
2018-05-03T09:47:51.279Z,64.90
2018-05-03T09:50:21.238Z,60.00
2018-05-03T09:52:53.682Z,65.30
2018-05-03T09:55:22.580Z,65.30
2018-05-03T09:57:55.884Z,63.00
2018-05-03T10:00:24.977Z,53.10
2018-05-03T10:03:01.133Z,54.20
2018-05-03T10:05:30.623Z,58.80
2018-05-03T10:08:01.147Z,60.50
2018-05-03T10:10:30.054Z,56.10
2018-05-03T10:13:03.293Z,58.90
2018-05-03T10:15:32.103Z,64.00
2018-05-03T10:18:06.905Z,61.50
2018-05-03T10:20:37.085Z,61.50
2018-05-03T10:23:08.700Z,65.70
2018-05-03T10:25:37.646Z,65.70
2018-05-03T10:28:15.431Z,62.30
2018-05-03T10:30:45.183Z,69.20
2018-05-03T10:33:15.431Z,69.20
2018-05-03T10:35:50.466Z,68.50
2018-05-03T10:38:32.533Z,57.70
2018-05-03T10:41:01.672Z,56.50
2018-05-03T10:43:30.665Z,56.80
2018-05-03T10:45:59.537Z,62.90
2018-05-03T10:48:28.763Z,59.00
2018-05-03T10:50:57.641Z,55.80
2018-05-03T10:53:26.488Z,55.00
2018-05-03T10:55:55.584Z,57.70
2018-05-03T10:58:25.215Z,52.70
2018-05-03T11:00:54.069Z,53.20
2018-05-03T11:05:54.876Z,54.70
2018-05-03T11:08:31.637Z,54.10
2018-05-03T11:11:02.993Z,52.10
2018-05-03T11:16:12.721Z,54.60
2018-05-03T11:18:41.454Z,52.10
2018-05-03T11:21:11.096Z,52.60
2018-05-03T11:23:40.300Z,52.60
2018-05-03T11:26:10.376Z,53.50
2018-05-03T11:28:39.230Z,53.90
2018-05-03T11:33:41.870Z,56.90
2018-05-03T11:36:11.503Z,54.60
2018-05-03T11:38:43.679Z,54.80
2018-05-03T11:41:12.488Z,49.50
2018-05-03T11:43:44.860Z,47.60
2018-05-03T11:46:13.950Z,48.60
2018-05-03T11:48:50.713Z,47.60
2018-05-03T11:51:19.556Z,53.70
2018-05-03T11:53:50.075Z,55.90
2018-05-03T11:56:18.882Z,50.60
2018-05-03T11:58:52.774Z,49.50
2018-05-03T12:01:21.787Z,49.50
2018-05-03T12:03:55.041Z,44.10
2018-05-03T12:06:24.138Z,44.00
2018-05-03T12:09:00.508Z,44.10
2018-05-03T12:11:29.270Z,46.60
2018-05-03T12:14:01.317Z,43.20
2018-05-03T12:16:30.465Z,42.30
2018-05-03T12:19:02.767Z,49.40
2018-05-03T12:21:32.623Z,49.30
2018-05-03T12:24:05.204Z,46.80
2018-05-03T12:26:34.429Z,47.30
2018-05-03T12:29:10.971Z,46.00
2018-05-03T12:31:40.107Z,48.60
2018-05-03T12:34:13.395Z,52.40
2018-05-03T12:36:44.288Z,48.70
2018-05-03T12:39:14.696Z,48.90
2018-05-03T12:41:43.940Z,45.00
2018-05-03T12:44:16.921Z,40.60
2018-05-03T12:46:45.887Z,40.60
2018-05-03T12:49:19.892Z,40.50
2018-05-03T12:51:48.829Z,43.50
2018-05-03T12:54:21.589Z,45.70
2018-05-03T12:56:50.800Z,41.10
2018-05-03T12:59:24.224Z,45.20
2018-05-03T13:01:53.617Z,45.30
2018-05-03T13:04:25.955Z,42.10
2018-05-03T13:06:54.851Z,45.30
2018-05-03T13:09:36.537Z,41.70
2018-05-03T13:12:05.682Z,43.80
2018-05-03T13:14:38.594Z,44.30
2018-05-03T13:17:11.427Z,42.00
2018-05-03T13:19:41.944Z,44.20
2018-05-03T13:22:10.940Z,44.00
2018-05-03T13:24:40.506Z,45.10
2018-05-03T13:27:09.320Z,45.00
2018-05-03T13:29:38.218Z,47.80
2018-05-03T13:32:07.833Z,42.90
2018-05-03T13:34:40.614Z,43.60
2018-05-03T13:37:10.283Z,44.40
2018-05-03T13:39:42.454Z,44.40
2018-05-03T13:42:12.367Z,41.80
2018-05-03T13:44:45.023Z,41.80
2018-05-03T13:47:13.836Z,42.30
2018-05-03T13:49:50.659Z,41.00
2018-05-03T13:52:19.553Z,42.10
2018-05-03T13:54:51.761Z,45.30
2018-05-03T13:57:20.993Z,44.70
2018-05-03T13:59:52.500Z,41.40
2018-05-03T14:02:21.392Z,41.40
2018-05-03T14:04:55.375Z,43.70
2018-05-03T14:07:24.269Z,45.50
2018-05-03T14:09:57.534Z,44.30
2018-05-03T14:12:27.361Z,43.50
2018-05-03T14:14:59.361Z,43.50
2018-05-03T14:17:28.181Z,43.90
2018-05-03T14:20:01.902Z,47.30
2018-05-03T14:22:30.808Z,47.30
2018-05-03T14:25:07.848Z,43.10
2018-05-03T14:27:37.661Z,43.00
2018-05-03T14:30:07.056Z,43.40
2018-05-03T14:32:36.137Z,44.60
2018-05-03T14:35:13.982Z,45.50
2018-05-03T14:37:44.450Z,44.20
2018-05-03T14:42:54.353Z,42.40
2018-05-03T14:45:24.743Z,43.00
2018-05-03T14:47:55.057Z,43.00
2018-05-03T14:50:24.344Z,45.70
2018-05-03T14:52:53.243Z,43.80
2018-05-03T14:55:23.475Z,44.10
2018-05-03T14:57:52.340Z,46.80
2018-05-03T15:00:21.922Z,47.80
2018-05-03T15:02:51.420Z,45.70
2018-05-03T15:05:26.748Z,45.30
2018-05-03T15:07:55.685Z,45.20
2018-05-03T15:10:27.109Z,45.00
2018-05-03T15:12:59.345Z,49.50
2018-05-03T15:15:29.723Z,49.50
2018-05-03T15:17:58.614Z,51.10
2018-05-03T15:20:31.439Z,51.50
2018-05-03T15:23:00.692Z,50.90
2018-05-03T15:25:33.067Z,48.10
2018-05-03T15:28:01.981Z,54.70
2018-05-03T15:30:34.213Z,50.90
2018-05-03T15:33:03.063Z,49.00
2018-05-03T15:35:36.043Z,48.90
2018-05-03T15:38:05.216Z,49.10
2018-05-03T15:40:41.272Z,54.30
2018-05-03T15:43:10.291Z,51.20
2018-05-03T15:45:40.412Z,51.60
2018-05-03T15:48:10.060Z,50.40
2018-05-03T15:50:43.473Z,52.30
2018-05-03T15:53:12.340Z,55.30
2018-05-03T15:55:45.867Z,57.60
2018-05-03T15:58:15.874Z,52.50
2018-05-03T16:00:52.139Z,52.50
2018-05-03T16:03:21.703Z,56.30
2018-05-03T16:05:50.930Z,53.10
2018-05-03T16:08:20.099Z,52.50
2018-05-03T16:10:56.528Z,52.70
2018-05-03T16:13:25.447Z,57.30
2018-05-03T16:15:57.970Z,56.60
2018-05-03T16:18:26.780Z,57.00
2018-05-03T16:20:59.527Z,59.30
2018-05-03T16:23:28.758Z,56.60
2018-05-03T16:26:02.771Z,61.60
2018-05-03T16:28:31.683Z,55.60
2018-05-03T16:31:04.434Z,58.10
2018-05-03T16:33:33.302Z,61.00
2018-05-03T16:36:09.936Z,56.80
2018-05-03T16:38:39.970Z,59.80
2018-05-03T16:41:12.414Z,59.70
2018-05-03T16:43:42.087Z,55.70
2018-05-03T16:46:14.939Z,55.60
2018-05-03T16:48:43.880Z,53.10
2018-05-03T16:51:16.202Z,56.60
2018-05-03T16:53:45.655Z,60.00
2018-05-03T16:56:19.111Z,65.10
2018-05-03T16:58:48.140Z,65.10
2018-05-03T17:01:22.287Z,65.70
2018-05-03T17:03:52.084Z,61.80
2018-05-03T17:06:24.480Z,61.80
2018-05-03T17:08:53.710Z,64.20
2018-05-03T17:11:25.627Z,62.20
2018-05-03T17:13:55.215Z,67.60
2018-05-03T17:16:36.844Z,67.50
2018-05-03T17:19:05.780Z,66.80
2018-05-03T17:21:34.744Z,65.30
2018-05-03T17:24:03.995Z,63.90
2018-05-03T17:26:32.919Z,66.00
2018-05-03T17:29:01.857Z,67.30
2018-05-03T17:31:33.249Z,69.90
2018-05-03T17:34:02.187Z,61.10
2018-05-03T17:36:36.742Z,62.90
2018-05-03T17:39:07.902Z,69.00
2018-05-03T17:41:40.327Z,68.90
2018-05-03T17:44:09.200Z,64.70
2018-05-03T17:46:41.719Z,64.80
2018-05-03T17:49:10.611Z,64.80
2018-05-03T17:51:43.830Z,65.40
2018-05-03T17:54:13.017Z,65.30
2018-05-03T17:56:49.605Z,68.60
2018-05-03T17:59:18.533Z,67.60
2018-05-03T18:01:48.425Z,72.90
2018-05-03T18:04:17.588Z,70.00
2018-05-03T18:06:54.507Z,68.70
2018-05-03T18:09:25.180Z,67.70
2018-05-03T18:11:54.929Z,66.90
2018-05-03T18:14:23.839Z,66.90
2018-05-03T18:16:55.908Z,65.90
2018-05-03T18:19:24.860Z,65.90
2018-05-03T18:22:00.826Z,69.10
2018-05-03T18:24:30.152Z,68.70
2018-05-03T18:27:00.255Z,71.70
2018-05-03T18:29:30.119Z,72.00
2018-05-03T18:32:03.130Z,72.10
2018-05-03T18:34:32.024Z,70.70
2018-05-03T18:37:08.035Z,71.10
2018-05-03T18:39:37.305Z,71.80
2018-05-03T18:42:09.522Z,70.90
2018-05-03T18:44:39.255Z,72.00
2018-05-03T18:47:12.973Z,73.40
2018-05-03T18:49:42.031Z,73.40
2018-05-03T18:52:14.934Z,73.60
2018-05-03T18:54:44.310Z,75.20
2018-05-03T18:57:17.392Z,75.70
2018-05-03T18:59:46.326Z,75.60
2018-05-03T19:02:17.836Z,76.60
2018-05-03T19:04:46.807Z,76.30
2018-05-03T19:07:19.375Z,77.40
2018-05-03T19:09:49.563Z,77.70
2018-05-03T19:12:21.746Z,78.90
2018-05-03T19:14:50.840Z,75.40
2018-05-03T19:17:27.725Z,77.00
2018-05-03T19:19:56.577Z,77.30
2018-05-03T19:22:25.920Z,77.20
2018-05-03T19:24:56.236Z,76.50
2018-05-03T19:27:29.055Z,77.70
2018-05-03T19:29:58.772Z,77.50
2018-05-03T19:32:30.144Z,78.20
2018-05-03T19:34:59.055Z,78.10
2018-05-03T19:37:31.904Z,78.00
2018-05-03T19:40:00.854Z,78.10
2018-05-03T19:42:37.977Z,77.50
2018-05-03T19:45:07.669Z,78.30
2018-05-03T19:47:36.554Z,78.30
2018-05-03T19:50:05.471Z,80.00
2018-05-03T19:52:39.672Z,80.90
2018-05-03T19:55:08.605Z,80.40
2018-05-03T19:57:40.881Z,80.50
2018-05-03T20:00:10.883Z,81.10
2018-05-03T20:02:42.762Z,81.10
2018-05-03T20:05:11.670Z,80.50
2018-05-03T20:07:46.212Z,81.80
2018-05-03T20:10:15.928Z,81.60
2018-05-03T20:12:47.134Z,81.00
2018-05-03T20:15:16.802Z,81.00
2018-05-03T20:17:49.866Z,81.70
2018-05-03T20:20:19.594Z,82.30
2018-05-03T20:22:53.816Z,82.30
2018-05-03T20:25:22.891Z,82.30
2018-05-03T20:27:56.418Z,82.20
2018-05-03T20:30:26.032Z,82.20
2018-05-03T20:32:58.868Z,83.10
2018-05-03T20:35:28.535Z,81.90
2018-05-03T20:37:59.118Z,81.90
2018-05-03T20:40:28.825Z,83.80
2018-05-03T20:43:01.673Z,83.80
2018-05-03T20:45:30.570Z,82.70
2018-05-03T20:48:04.811Z,83.00
2018-05-03T20:50:33.722Z,83.50
2018-05-03T20:53:09.830Z,83.10
2018-05-03T20:55:39.042Z,83.70
2018-05-03T20:58:11.679Z,84.20
2018-05-03T21:00:41.716Z,84.50
2018-05-03T21:03:18.455Z,84.40
2018-05-03T21:05:48.080Z,84.60
2018-05-03T21:08:17.002Z,85.10
2018-05-03T21:10:46.255Z,84.70
2018-05-03T21:13:16.949Z,85.30
2018-05-03T21:15:47.065Z,85.10
2018-05-03T21:18:19.916Z,85.10
2018-05-03T21:20:49.209Z,86.00
2018-05-03T21:23:20.645Z,85.60
2018-05-03T21:25:50.982Z,85.50
2018-05-03T21:28:23.246Z,87.00
2018-05-03T21:30:52.369Z,85.40
2018-05-03T21:33:33.986Z,84.80
2018-05-03T21:36:03.324Z,85.40
2018-05-03T21:38:32.313Z,86.10
2018-05-03T21:41:01.410Z,85.40
2018-05-03T21:43:30.570Z,86.00
2018-05-03T21:46:00.022Z,85.40
2018-05-03T21:48:31.917Z,86.50
2018-05-03T21:51:00.911Z,86.40
2018-05-03T21:53:36.867Z,87.10
2018-05-03T21:56:06.783Z,86.50
2018-05-03T21:58:36.675Z,87.00
2018-05-03T22:01:07.501Z,87.00
2018-05-03T22:06:14.341Z,87.50
2018-05-03T22:08:44.926Z,87.30
2018-05-03T22:11:14.544Z,87.20
2018-05-03T22:13:44.275Z,87.70
2018-05-03T22:16:14.546Z,87.70
2018-05-03T22:18:45.370Z,87.80
2018-05-03T22:28:00.912Z,88.60
2018-05-03T22:30:32.158Z,87.20
2018-05-03T22:33:01.421Z,87.60
2018-05-03T22:35:30.268Z,87.60
2018-05-03T22:37:59.485Z,88.00
2018-05-03T22:40:29.225Z,88.80
2018-05-03T22:42:58.100Z,88.70
2018-05-03T22:45:27.229Z,88.60
2018-05-03T22:48:01.165Z,89.20
2018-05-03T22:50:30.070Z,89.80
2018-05-03T22:53:03.069Z,88.80
2018-05-03T22:55:31.960Z,89.10
2018-05-03T22:58:05.885Z,89.10
2018-05-03T23:00:35.528Z,89.20
2018-05-03T23:03:08.643Z,89.70
2018-05-03T23:05:38.065Z,89.70
2018-05-03T23:08:10.963Z,90.00
2018-05-03T23:10:40.825Z,90.10
2018-05-03T23:13:13.342Z,90.10
2018-05-03T23:15:42.781Z,90.00
2018-05-03T23:18:16.186Z,90.20
2018-05-03T23:20:45.163Z,90.20
2018-05-03T23:23:23.150Z,90.70
2018-05-03T23:25:52.210Z,90.20
2018-05-03T23:28:22.001Z,90.30
2018-05-03T23:30:51.112Z,90.30
2018-05-03T23:33:21.673Z,90.60
2018-05-03T23:35:51.469Z,90.80
2018-05-03T23:38:24.107Z,90.60
2018-05-03T23:40:53.256Z,90.60
2018-05-03T23:43:29.518Z,90.80
2018-05-03T23:45:58.593Z,90.80
2018-05-03T23:48:28.201Z,90.90
2018-05-03T23:50:57.010Z,91.00
2018-05-03T23:53:30.424Z,90.90
2018-05-03T23:55:59.218Z,90.90
2018-05-03T23:58:35.744Z,91.00
